Terminal Aerodrome Forecast
Issued by NWS Brownsville, TX

Home | Current Version | Previous Version | Text Only | Print | Product List | Glossary On
Versions: 1 2 3 4 5 6 7 8 9 10 11 12 13 14 15 16 17 18 19 20 21 22 23 24 25 26
000
FTUS44 KBRO 300305 AAB
TAFBRO
TAF AMD
KBRO 300305Z 3003/3024 13006KT P6SM SCT021
     FM300600 14006KT 5SM BR OVC015
     FM301200 14003KT 4SM BR OVC010
     FM301500 16011KT P6SM OVC025
     FM301800 14011KT P6SM SCT030 SCT250=

USA.gov is the U.S. government's official web portal to all federal, state and local government web resources and services.